Terminal Aerodrome Forecast
Issued by NWS

Home | Current Version | Previous Version | Text Only | Print | Product List | Glossary On
Versions: 1 2 3 4 5 6 7 8 9 10 11 12 13 14 15 16 17 18 19 20 21 22 23 24 25 26 27 28 29 30 31 32 33 34 35 36 37 38 39
000
FTAK31 PANC 021142
TAFACD
TAF
PACD 021142Z 0212/0312 01012KT P6SM VCSH SCT080 BKN100
     FM021800 05015G25KT P6SM VCSH BKN030 OVC080
     FM021900 02015KT P6SM BKN040 BKN200
     FM030400 36010KT P6SM FEW060 SCT200=

USA.gov is the U.S. government's official web portal to all federal, state and local government web resources and services.